createdAt,value
2022-10-14T00:01:14.018Z,54.37
2022-10-14T00:03:42.571Z,54.33
2022-10-14T00:06:13.885Z,54.17
2022-10-14T00:08:42.657Z,54.20
2022-10-14T00:11:13.508Z,54.23
2022-10-14T00:13:42.084Z,54.36
2022-10-14T00:16:17.628Z,54.32
2022-10-14T00:18:45.777Z,54.30
2022-10-14T00:21:15.443Z,54.13
2022-10-14T00:23:44.129Z,54.25
2022-10-14T00:26:17.600Z,54.31
2022-10-14T00:28:45.849Z,54.38
2022-10-14T00:31:14.049Z,54.42
2022-10-14T00:33:42.237Z,54.27
2022-10-14T00:36:14.114Z,54.42
2022-10-14T00:38:45.451Z,54.11
2022-10-14T00:41:17.568Z,54.26
2022-10-14T00:44:00.837Z,54.33
2022-10-14T00:46:31.451Z,54.01
2022-10-14T00:49:03.103Z,54.13
2022-10-14T00:51:31.368Z,54.29
2022-10-14T00:54:01.072Z,54.30
2022-10-14T00:56:31.562Z,54.42
2022-10-14T00:59:01.593Z,54.41
2022-10-14T01:01:29.943Z,54.44
2022-10-14T01:03:58.039Z,54.03
2022-10-14T01:06:41.509Z,54.11
2022-10-14T01:09:26.717Z,54.24
2022-10-14T01:12:27.602Z,54.24
2022-10-14T01:14:59.992Z,54.30
2022-10-14T01:17:38.004Z,54.45
2022-10-14T01:20:38.699Z,54.41
2022-10-14T01:23:22.287Z,54.37
2022-10-14T01:25:59.149Z,54.43
2022-10-14T01:28:39.741Z,54.40
2022-10-14T01:31:15.295Z,54.42
2022-10-14T01:33:47.048Z,54.43
2022-10-14T01:36:21.808Z,54.31
2022-10-14T01:38:55.599Z,54.12
2022-10-14T01:41:28.173Z,54.31
2022-10-14T01:43:59.401Z,54.40
2022-10-14T01:46:31.240Z,54.23
2022-10-14T01:49:04.576Z,54.60
2022-10-14T01:51:38.299Z,54.28
2022-10-14T01:54:10.023Z,54.19
2022-10-14T01:56:40.843Z,54.24
2022-10-14T01:59:11.545Z,54.18
2022-10-14T02:01:41.155Z,54.51
2022-10-14T02:04:17.428Z,54.33
2022-10-14T02:06:52.956Z,54.27
2022-10-14T02:09:33.055Z,54.39
2022-10-14T02:12:12.453Z,54.34
2022-10-14T02:14:46.935Z,54.67
2022-10-14T02:17:22.464Z,54.31
2022-10-14T02:19:55.394Z,54.49
2022-10-14T02:22:30.449Z,54.34
2022-10-14T02:25:03.489Z,54.47
2022-10-14T02:27:34.305Z,54.48
2022-10-14T02:30:04.950Z,54.20
2022-10-14T02:32:36.705Z,54.23
2022-10-14T02:35:07.320Z,54.26
2022-10-14T02:37:38.127Z,54.25
2022-10-14T02:40:12.221Z,54.65
2022-10-14T02:42:40.474Z,54.55
2022-10-14T02:45:11.256Z,54.33
2022-10-14T02:47:40.799Z,54.31
2022-10-14T02:50:10.528Z,54.25
2022-10-14T02:52:38.684Z,54.29
2022-10-14T02:55:07.504Z,54.28
2022-10-14T02:57:35.701Z,54.32
2022-10-14T03:00:03.886Z,54.54
2022-10-14T03:02:32.134Z,54.58
2022-10-14T03:05:01.680Z,54.21
2022-10-14T03:07:30.697Z,54.56
2022-10-14T03:09:59.050Z,54.44
2022-10-14T03:12:27.685Z,54.49
2022-10-14T03:14:56.113Z,54.45
2022-10-14T03:17:24.305Z,54.45
2022-10-14T03:19:52.376Z,54.38
2022-10-14T03:22:22.301Z,54.34
2022-10-14T03:24:50.548Z,54.34
2022-10-14T03:27:18.660Z,54.54
2022-10-14T03:29:46.704Z,54.58
2022-10-14T03:32:14.769Z,54.49
2022-10-14T03:34:42.890Z,54.61
2022-10-14T03:37:10.977Z,54.38
2022-10-14T03:39:40.477Z,54.46
2022-10-14T03:42:08.668Z,54.61
2022-10-14T03:44:36.792Z,54.58
2022-10-14T03:47:04.975Z,54.56
2022-10-14T03:49:33.158Z,54.39
2022-10-14T03:52:01.273Z,54.46
2022-10-14T03:54:29.383Z,54.40
2022-10-14T03:56:58.823Z,54.46
2022-10-14T03:59:27.063Z,54.64
2022-10-14T04:01:55.422Z,54.63
2022-10-14T04:04:23.805Z,54.61
2022-10-14T04:06:52.010Z,54.48
2022-10-14T04:09:20.256Z,54.26
2022-10-14T04:11:48.706Z,54.36
2022-10-14T04:14:18.287Z,54.37
2022-10-14T04:16:50.032Z,54.55
2022-10-14T04:19:18.433Z,54.36
2022-10-14T04:21:46.600Z,54.64
2022-10-14T04:24:14.861Z,54.54
2022-10-14T04:26:43.470Z,54.58
2022-10-14T04:29:11.546Z,54.30
2022-10-14T04:31:41.005Z,54.48
2022-10-14T04:34:09.225Z,54.52
2022-10-14T04:36:37.439Z,54.42
2022-10-14T04:39:06.100Z,54.30
2022-10-14T04:41:34.330Z,54.50
2022-10-14T04:44:02.376Z,54.38
2022-10-14T04:46:31.573Z,54.30
2022-10-14T04:49:01.066Z,54.32
2022-10-14T04:51:29.363Z,54.39
2022-10-14T04:53:57.661Z,54.59
2022-10-14T04:56:25.843Z,54.48
2022-10-14T04:58:56.480Z,54.35
2022-10-14T05:01:33.666Z,54.67
2022-10-14T05:04:06.227Z,54.49
2022-10-14T05:06:35.548Z,54.44
2022-10-14T05:09:05.848Z,54.50
2022-10-14T05:11:34.150Z,54.48
2022-10-14T05:14:02.397Z,54.74
2022-10-14T05:16:30.788Z,54.72
2022-10-14T05:18:59.136Z,54.87
2022-10-14T05:21:28.625Z,54.62
2022-10-14T05:23:56.860Z,54.84
2022-10-14T05:26:26.223Z,54.77
2022-10-14T05:28:54.456Z,54.91
2022-10-14T05:31:22.722Z,54.75
2022-10-14T05:33:50.928Z,54.86
2022-10-14T05:36:18.981Z,55.07
2022-10-14T05:38:50.921Z,54.93
2022-10-14T05:41:18.948Z,54.79
2022-10-14T05:43:47.031Z,54.96
2022-10-14T05:46:15.115Z,55.39
2022-10-14T05:48:43.213Z,55.26
2022-10-14T05:51:11.360Z,55.27
2022-10-14T05:53:40.196Z,55.27
2022-10-14T05:56:11.196Z,55.32
2022-10-14T05:58:39.275Z,55.04
2022-10-14T06:01:10.417Z,55.47
2022-10-14T06:03:38.467Z,55.58
2022-10-14T06:06:06.886Z,55.51
2022-10-14T06:08:34.952Z,55.45
2022-10-14T06:11:05.631Z,55.55
2022-10-14T06:13:35.699Z,55.35
2022-10-14T06:16:07.586Z,55.37
2022-10-14T06:18:36.669Z,55.11
2022-10-14T06:21:06.070Z,55.42
2022-10-14T06:23:34.414Z,55.20
2022-10-14T06:26:06.099Z,55.31
2022-10-14T06:28:35.671Z,55.42
2022-10-14T06:31:04.084Z,55.43
2022-10-14T06:33:32.436Z,55.53
2022-10-14T06:36:02.555Z,55.52
2022-10-14T06:38:30.753Z,55.41
2022-10-14T06:40:59.048Z,55.23
2022-10-14T06:43:27.075Z,55.09
2022-10-14T06:45:58.749Z,55.14
2022-10-14T06:48:26.857Z,55.62
2022-10-14T06:50:55.216Z,55.43
2022-10-14T06:53:23.504Z,55.23
2022-10-14T06:55:57.856Z,55.27
2022-10-14T06:58:26.381Z,55.48
2022-10-14T07:01:03.505Z,55.23
2022-10-14T07:03:31.693Z,55.48
2022-10-14T07:05:59.855Z,55.19
2022-10-14T07:08:27.896Z,55.46
2022-10-14T07:10:56.096Z,55.34
2022-10-14T07:13:25.428Z,55.38
2022-10-14T07:15:53.435Z,55.19
2022-10-14T07:18:23.419Z,55.25
2022-10-14T07:20:51.518Z,55.16
2022-10-14T07:23:19.835Z,55.38
2022-10-14T07:25:47.885Z,55.24
2022-10-14T07:28:16.453Z,55.25
2022-10-14T07:30:44.787Z,55.43
2022-10-14T07:33:13.439Z,55.21
2022-10-14T07:35:42.908Z,55.60
2022-10-14T07:38:11.205Z,55.31
2022-10-14T07:40:39.278Z,55.48
2022-10-14T07:43:07.369Z,55.65
2022-10-14T07:45:36.464Z,55.48
2022-10-14T07:48:04.804Z,55.19
2022-10-14T07:50:32.950Z,55.31
2022-10-14T07:53:02.775Z,55.54
2022-10-14T07:55:31.080Z,55.38
2022-10-14T07:57:59.282Z,55.42
2022-10-14T08:00:27.528Z,55.05
2022-10-14T08:02:55.758Z,55.40
2022-10-14T08:05:37.600Z,55.06
2022-10-14T08:08:08.106Z,54.90
2022-10-14T08:10:36.410Z,55.09
2022-10-14T08:13:04.557Z,55.02
2022-10-14T08:15:35.564Z,55.28
2022-10-14T08:18:03.631Z,55.06
2022-10-14T08:20:32.408Z,55.21
2022-10-14T08:23:00.788Z,55.02
2022-10-14T08:25:31.029Z,55.15
2022-10-14T08:27:59.111Z,55.26
2022-10-14T08:30:27.178Z,55.03
2022-10-14T08:32:55.455Z,55.01
2022-10-14T08:35:23.595Z,55.39
2022-10-14T08:37:59.143Z,55.24
2022-10-14T08:40:31.315Z,55.23
2022-10-14T08:43:06.947Z,55.37
2022-10-14T08:45:38.807Z,55.26
2022-10-14T08:48:13.734Z,55.25
2022-10-14T08:50:49.112Z,55.07
2022-10-14T08:53:20.674Z,55.11
2022-10-14T08:55:54.835Z,55.30
2022-10-14T09:00:54.861Z,54.96
2022-10-14T09:03:26.903Z,55.12
2022-10-14T09:06:00.600Z,55.00
2022-10-14T09:08:33.817Z,54.89
2022-10-14T09:11:03.305Z,55.08
2022-10-14T09:13:36.963Z,55.00
2022-10-14T09:16:09.545Z,54.84
2022-10-14T09:18:41.388Z,54.84
2022-10-14T09:21:34.040Z,55.02
2022-10-14T09:24:20.079Z,54.96
2022-10-14T09:26:52.422Z,54.86
2022-10-14T09:29:27.819Z,55.01
2022-10-14T09:31:59.636Z,54.77
2022-10-14T09:34:33.967Z,54.98
2022-10-14T09:37:17.350Z,54.61
2022-10-14T09:39:45.619Z,54.98
2022-10-14T09:42:20.305Z,55.02
2022-10-14T09:47:51.120Z,55.04
2022-10-14T09:50:25.507Z,54.74
2022-10-14T09:52:58.835Z,54.96
2022-10-14T09:55:27.248Z,55.35
2022-10-14T09:58:09.489Z,55.15
2022-10-14T10:00:38.937Z,55.05
2022-10-14T10:03:08.258Z,55.22
2022-10-14T10:05:37.347Z,55.08
2022-10-14T10:08:18.069Z,54.94
2022-10-14T10:11:03.771Z,55.14
2022-10-14T10:13:44.562Z,54.87
2022-10-14T10:16:25.754Z,54.90
2022-10-14T10:18:55.610Z,54.95
2022-10-14T10:21:26.865Z,54.98
2022-10-14T10:24:00.477Z,54.88
2022-10-14T10:26:34.500Z,54.97
2022-10-14T10:29:09.082Z,55.19
2022-10-14T10:31:57.759Z,55.20
2022-10-14T10:35:01.426Z,55.54
2022-10-14T10:37:32.032Z,55.20
2022-10-14T10:40:12.171Z,55.35
2022-10-14T10:42:51.678Z,55.31
2022-10-14T10:45:38.325Z,55.36
2022-10-14T10:48:16.894Z,55.35
2022-10-14T10:50:56.412Z,55.08
2022-10-14T10:53:46.786Z,55.25
2022-10-14T10:56:28.848Z,55.23
2022-10-14T11:01:54.742Z,55.04
2022-10-14T11:04:31.195Z,55.41
2022-10-14T11:07:34.362Z,55.27
2022-10-14T11:10:32.285Z,55.13
2022-10-14T11:13:07.693Z,55.22
2022-10-14T11:15:48.590Z,55.09
2022-10-14T11:18:31.259Z,55.40
2022-10-14T11:21:12.433Z,55.15
2022-10-14T11:24:06.821Z,55.31
2022-10-14T11:26:46.202Z,55.24
2022-10-14T11:29:29.233Z,55.13
2022-10-14T11:32:07.753Z,55.29
2022-10-14T11:34:51.524Z,55.42
2022-10-14T11:37:39.084Z,55.20
2022-10-14T11:40:17.702Z,54.86
2022-10-14T11:43:01.931Z,54.91
2022-10-14T11:45:48.329Z,55.17
2022-10-14T11:48:28.369Z,54.88
2022-10-14T11:51:03.928Z,54.93
2022-10-14T11:53:46.186Z,54.74
2022-10-14T11:56:38.006Z,55.19
2022-10-14T11:59:24.965Z,54.86
2022-10-14T12:02:02.255Z,55.02
2022-10-14T12:04:35.616Z,54.87
2022-10-14T12:07:11.193Z,55.03
2022-10-14T12:09:44.404Z,55.07
2022-10-14T12:12:16.032Z,55.34
2022-10-14T12:14:48.438Z,54.94
2022-10-14T12:17:20.955Z,54.94
2022-10-14T12:19:52.578Z,55.04
2022-10-14T12:22:25.833Z,54.90
2022-10-14T12:24:58.091Z,55.23
2022-10-14T12:27:29.863Z,54.92
2022-10-14T12:29:59.523Z,55.00
2022-10-14T12:32:30.962Z,54.96
2022-10-14T12:35:01.385Z,55.09
2022-10-14T12:37:52.330Z,55.10
2022-10-14T12:40:27.755Z,55.18
2022-10-14T12:43:16.486Z,54.90
2022-10-14T12:46:14.782Z,54.90
2022-10-14T12:48:50.407Z,54.77
2022-10-14T12:51:23.199Z,54.78
2022-10-14T12:54:14.182Z,54.93
2022-10-14T12:56:47.534Z,54.89
2022-10-14T12:59:26.060Z,54.76
2022-10-14T13:02:11.475Z,55.15
2022-10-14T13:04:50.159Z,55.12
2022-10-14T13:07:40.419Z,54.88
2022-10-14T13:10:47.377Z,54.92
2022-10-14T13:13:53.818Z,54.94
2022-10-14T13:17:06.589Z,54.86
2022-10-14T13:19:47.452Z,54.87
2022-10-14T13:22:38.401Z,55.06
2022-10-14T13:25:14.904Z,55.25
2022-10-14T13:27:57.450Z,55.19
2022-10-14T13:30:36.685Z,54.95
2022-10-14T13:33:16.144Z,54.85
2022-10-14T13:35:59.597Z,54.89
2022-10-14T13:38:29.310Z,54.82
2022-10-14T13:40:59.915Z,54.87
2022-10-14T13:43:36.106Z,54.71
2022-10-14T13:46:08.609Z,54.92
2022-10-14T13:48:42.426Z,54.80
2022-10-14T13:51:37.645Z,54.90
2022-10-14T13:54:19.812Z,54.93
2022-10-14T13:57:35.032Z,54.65
2022-10-14T14:00:38.986Z,55.13
2022-10-14T14:02:41.455Z,54.99
2022-10-14T14:05:17.762Z,54.95
2022-10-14T14:10:42.495Z,54.76
2022-10-14T14:13:21.456Z,54.67
2022-10-14T14:16:08.458Z,55.04
2022-10-14T14:18:49.509Z,54.70
2022-10-14T14:21:28.247Z,54.60
2022-10-14T14:23:58.466Z,54.78
2022-10-14T14:26:33.866Z,54.78
2022-10-14T14:29:05.830Z,55.00
2022-10-14T14:32:04.918Z,54.98
2022-10-14T14:34:32.807Z,54.65
2022-10-14T14:37:25.077Z,54.99
2022-10-14T14:39:59.739Z,54.81
2022-10-14T14:42:42.449Z,55.07
2022-10-14T14:45:21.894Z,55.01
2022-10-14T14:47:54.996Z,55.05
2022-10-14T14:50:31.261Z,54.88
2022-10-14T14:53:05.907Z,54.83
2022-10-14T14:55:42.565Z,54.86
2022-10-14T14:58:30.138Z,54.73
2022-10-14T15:00:59.033Z,55.06
2022-10-14T15:03:31.517Z,54.73
2022-10-14T15:06:01.978Z,54.86
2022-10-14T15:08:33.011Z,54.55
2022-10-14T15:11:01.842Z,54.80
2022-10-14T15:13:45.695Z,54.67
2022-10-14T15:16:17.131Z,54.43
2022-10-14T15:18:47.957Z,54.36
2022-10-14T15:21:19.435Z,54.27
2022-10-14T15:24:03.492Z,54.28
2022-10-14T15:26:34.873Z,54.61
2022-10-14T15:29:18.039Z,54.33
2022-10-14T15:31:48.338Z,54.20
2022-10-14T15:34:21.715Z,54.54
2022-10-14T15:36:54.286Z,54.28
2022-10-14T15:39:23.783Z,54.46
2022-10-14T15:41:52.483Z,54.44
2022-10-14T15:44:21.563Z,54.08
2022-10-14T15:47:08.211Z,54.36
2022-10-14T15:49:42.699Z,54.41
2022-10-14T15:52:18.475Z,54.12
2022-10-14T15:54:49.163Z,54.19
2022-10-14T15:57:28.653Z,54.52
2022-10-14T16:00:00.221Z,54.00
2022-10-14T16:02:33.618Z,54.09
2022-10-14T16:05:20.360Z,54.29
2022-10-14T16:07:53.716Z,54.40
2022-10-14T16:10:23.988Z,54.14
2022-10-14T16:12:52.871Z,53.99
2022-10-14T16:15:28.501Z,54.07
2022-10-14T16:17:57.192Z,54.32
2022-10-14T16:20:27.406Z,54.07
2022-10-14T16:22:56.095Z,53.99
2022-10-14T16:25:31.261Z,54.12
2022-10-14T16:28:00.553Z,53.81
2022-10-14T16:30:31.590Z,54.21
2022-10-14T16:33:01.061Z,54.28
2022-10-14T16:35:31.375Z,54.01
2022-10-14T16:38:00.343Z,53.97
2022-10-14T16:40:31.837Z,54.19
2022-10-14T16:43:02.512Z,54.02
2022-10-14T16:45:31.628Z,53.98
2022-10-14T16:48:02.397Z,54.03
2022-10-14T16:50:32.239Z,53.78
2022-10-14T16:53:18.077Z,54.09
2022-10-14T16:55:46.546Z,54.31
2022-10-14T16:58:15.072Z,54.28
2022-10-14T17:00:43.891Z,53.94
2022-10-14T17:03:12.391Z,53.90
2022-10-14T17:05:42.870Z,53.88
2022-10-14T17:08:11.223Z,54.14
2022-10-14T17:10:40.326Z,53.97
2022-10-14T17:13:11.136Z,54.07
2022-10-14T17:15:39.408Z,53.73
2022-10-14T17:18:10.961Z,53.84
2022-10-14T17:20:42.207Z,54.07
2022-10-14T17:23:11.183Z,54.18
2022-10-14T17:25:39.344Z,54.23
2022-10-14T17:28:07.721Z,54.09
2022-10-14T17:30:36.020Z,54.12
2022-10-14T17:33:04.460Z,53.94
2022-10-14T17:35:34.969Z,54.11
2022-10-14T17:38:04.604Z,54.05
2022-10-14T17:40:34.587Z,54.24
2022-10-14T17:43:04.043Z,54.32
2022-10-14T17:45:33.304Z,53.92
2022-10-14T17:48:01.469Z,54.20
2022-10-14T17:50:30.412Z,54.00
2022-10-14T17:52:59.699Z,54.20
2022-10-14T17:55:29.602Z,53.87
2022-10-14T17:57:57.742Z,54.09
2022-10-14T18:00:26.249Z,53.99
2022-10-14T18:02:55.339Z,54.07
2022-10-14T18:05:24.892Z,54.00
2022-10-14T18:07:53.117Z,53.97
2022-10-14T18:10:21.794Z,53.96
2022-10-14T18:12:51.462Z,54.07
2022-10-14T18:15:20.833Z,53.76
2022-10-14T18:17:49.870Z,53.80
2022-10-14T18:20:18.469Z,53.76
2022-10-14T18:25:20.278Z,53.76
2022-10-14T18:27:49.017Z,54.00
2022-10-14T18:30:19.468Z,53.78
2022-10-14T18:32:47.752Z,53.80
2022-10-14T18:35:16.715Z,53.96
2022-10-14T18:37:44.849Z,53.73
2022-10-14T18:40:14.866Z,53.79
2022-10-14T18:42:43.617Z,53.96
2022-10-14T18:45:12.125Z,54.02
2022-10-14T18:47:42.132Z,53.69
2022-10-14T18:50:10.356Z,53.94
2022-10-14T18:52:38.504Z,53.73
2022-10-14T18:55:07.732Z,54.01
2022-10-14T18:57:37.060Z,53.82
2022-10-14T19:00:09.375Z,54.00
2022-10-14T19:02:43.393Z,54.09
2022-10-14T19:05:11.564Z,53.79
2022-10-14T19:07:43.011Z,54.08
2022-10-14T19:10:13.014Z,54.15
2022-10-14T19:12:44.507Z,53.91
2022-10-14T19:15:13.307Z,53.74
2022-10-14T19:17:45.958Z,53.91
2022-10-14T19:20:15.670Z,53.97
2022-10-14T19:22:45.449Z,54.02
2022-10-14T19:25:13.740Z,53.93
2022-10-14T19:27:42.492Z,53.73
2022-10-14T19:30:11.997Z,54.01
2022-10-14T19:32:40.624Z,53.84
2022-10-14T19:35:10.446Z,53.89
2022-10-14T19:37:39.018Z,54.02
2022-10-14T19:40:12.237Z,53.76
2022-10-14T19:42:41.719Z,54.03
2022-10-14T19:45:10.579Z,53.83
2022-10-14T19:47:39.662Z,53.94
2022-10-14T19:50:12.991Z,54.01
2022-10-14T19:52:41.296Z,54.05
2022-10-14T19:55:10.405Z,53.91
2022-10-14T19:57:38.599Z,54.04
2022-10-14T20:00:08.030Z,53.79
2022-10-14T20:02:36.217Z,53.84
2022-10-14T20:05:05.011Z,53.86
2022-10-14T20:07:34.767Z,54.15
2022-10-14T20:10:03.187Z,53.81
2022-10-14T20:12:31.641Z,54.01
2022-10-14T20:14:59.768Z,53.95
2022-10-14T20:17:28.461Z,53.77
2022-10-14T20:19:59.142Z,53.95
2022-10-14T20:22:27.630Z,53.80
2022-10-14T20:24:57.820Z,54.08
2022-10-14T20:27:26.263Z,53.76
2022-10-14T20:29:55.398Z,53.87
2022-10-14T20:32:23.954Z,53.71
2022-10-14T20:34:52.143Z,53.96
2022-10-14T20:37:23.070Z,53.81
2022-10-14T20:39:54.375Z,54.13
2022-10-14T20:42:24.963Z,53.97
2022-10-14T20:44:53.166Z,53.99
2022-10-14T20:47:21.596Z,53.75
2022-10-14T20:49:50.738Z,54.02
2022-10-14T20:52:20.353Z,54.09
2022-10-14T20:54:48.657Z,53.79
2022-10-14T20:57:17.438Z,54.06
2022-10-14T20:59:47.779Z,53.79
2022-10-14T21:02:18.471Z,53.79
2022-10-14T21:04:49.384Z,54.04
2022-10-14T21:07:20.270Z,54.18
2022-10-14T21:09:50.836Z,53.87
2022-10-14T21:12:19.263Z,53.82
2022-10-14T21:14:49.322Z,54.04
2022-10-14T21:17:18.365Z,54.13
2022-10-14T21:19:47.039Z,54.12
2022-10-14T21:22:15.332Z,54.14
2022-10-14T21:24:43.869Z,53.87
2022-10-14T21:27:12.197Z,53.96
2022-10-14T21:29:41.229Z,53.91
2022-10-14T21:32:11.441Z,53.71
2022-10-14T21:34:39.950Z,54.19
2022-10-14T21:37:08.409Z,54.03
2022-10-14T21:39:37.710Z,54.12
2022-10-14T21:42:09.732Z,54.20
2022-10-14T21:44:38.457Z,54.06
2022-10-14T21:47:08.255Z,54.21
2022-10-14T21:49:40.326Z,53.93
2022-10-14T21:52:08.529Z,54.22
2022-10-14T21:54:37.301Z,53.99
2022-10-14T21:57:05.563Z,54.17
2022-10-14T21:59:33.834Z,54.15
2022-10-14T22:02:02.422Z,54.16
2022-10-14T22:04:34.537Z,53.92
2022-10-14T22:07:08.392Z,54.18
2022-10-14T22:09:36.743Z,54.11
2022-10-14T22:12:05.754Z,54.18
2022-10-14T22:14:34.091Z,54.14
2022-10-14T22:17:02.304Z,54.21
2022-10-14T22:19:30.920Z,54.26
2022-10-14T22:22:01.480Z,54.20
2022-10-14T22:24:31.558Z,54.18
2022-10-14T22:27:01.872Z,54.27
2022-10-14T22:29:30.545Z,54.04
2022-10-14T22:32:02.084Z,53.99
2022-10-14T22:34:30.782Z,53.99
2022-10-14T22:36:59.983Z,54.28
2022-10-14T22:39:28.328Z,54.00
2022-10-14T22:41:57.969Z,54.18
2022-10-14T22:44:26.009Z,54.23
2022-10-14T22:46:55.182Z,54.29
2022-10-14T22:49:24.076Z,54.00
2022-10-14T22:51:55.954Z,54.27
2022-10-14T22:54:25.031Z,54.31
2022-10-14T22:56:53.566Z,54.26
2022-10-14T22:59:23.101Z,54.25
2022-10-14T23:01:52.810Z,54.01
2022-10-14T23:04:23.021Z,54.22
2022-10-14T23:06:51.714Z,54.01
2022-10-14T23:09:20.326Z,54.09
2022-10-14T23:11:49.102Z,54.01
2022-10-14T23:14:17.988Z,53.93
2022-10-14T23:16:48.295Z,54.09
2022-10-14T23:19:16.854Z,53.96
2022-10-14T23:21:45.651Z,54.09
2022-10-14T23:24:14.554Z,53.97
2022-10-14T23:26:46.005Z,54.10
2022-10-14T23:29:14.859Z,54.01
2022-10-14T23:31:43.144Z,54.24
2022-10-14T23:34:15.493Z,54.13
2022-10-14T23:36:44.096Z,54.01
2022-10-14T23:39:13.136Z,53.95
2022-10-14T23:41:41.891Z,54.14
2022-10-14T23:44:12.552Z,54.15
2022-10-14T23:46:44.322Z,54.20
2022-10-14T23:49:25.540Z,54.07
2022-10-14T23:51:55.481Z,54.00
2022-10-14T23:54:23.993Z,53.94
2022-10-14T23:56:52.370Z,54.12
2022-10-14T23:59:21.115Z,53.83
